sensor_id;sensor_type;location;lat;lon;timestamp;temperature;humidity
24460;DHT22;12630;50.860;5.714;2023-07-30T00:00:15;16.80;1.00
24460;DHT22;12630;50.860;5.714;2023-07-30T00:02:42;17.00;1.00
24460;DHT22;12630;50.860;5.714;2023-07-30T00:05:09;16.90;1.00
24460;DHT22;12630;50.860;5.714;2023-07-30T00:07:38;16.90;1.00
24460;DHT22;12630;50.860;5.714;2023-07-30T00:10:06;17.00;1.00
24460;DHT22;12630;50.860;5.714;2023-07-30T00:12:33;17.10;1.00
24460;DHT22;12630;50.860;5.714;2023-07-30T00:15:01;17.20;1.00
24460;DHT22;12630;50.860;5.714;2023-07-30T00:17:28;17.20;1.00
24460;DHT22;12630;50.860;5.714;2023-07-30T00:19:56;17.30;1.00
24460;DHT22;12630;50.860;5.714;2023-07-30T00:22:23;17.30;1.00
24460;DHT22;12630;50.860;5.714;2023-07-30T00:24:52;17.30;1.00
24460;DHT22;12630;50.860;5.714;2023-07-30T00:27:19;17.30;1.00
24460;DHT22;12630;50.860;5.714;2023-07-30T00:29:46;17.20;1.00
24460;DHT22;12630;50.860;5.714;2023-07-30T00:32:13;17.30;1.00
24460;DHT22;12630;50.860;5.714;2023-07-30T00:34:42;17.30;1.00
24460;DHT22;12630;50.860;5.714;2023-07-30T00:37:10;17.30;1.00
24460;DHT22;12630;50.860;5.714;2023-07-30T00:39:37;17.20;1.00
24460;DHT22;12630;50.860;5.714;2023-07-30T00:42:06;17.30;1.00
24460;DHT22;12630;50.860;5.714;2023-07-30T00:44:33;17.20;1.00
24460;DHT22;12630;50.860;5.714;2023-07-30T00:47:01;17.20;1.00
24460;DHT22;12630;50.860;5.714;2023-07-30T00:49:29;17.20;1.00
24460;DHT22;12630;50.860;5.714;2023-07-30T00:51:56;17.20;1.00
24460;DHT22;12630;50.860;5.714;2023-07-30T00:54:25;17.30;1.00
24460;DHT22;12630;50.860;5.714;2023-07-30T00:56:53;17.20;1.00
24460;DHT22;12630;50.860;5.714;2023-07-30T00:59:21;17.10;1.00
24460;DHT22;12630;50.860;5.714;2023-07-30T01:01:51;17.10;1.00
24460;DHT22;12630;50.860;5.714;2023-07-30T01:04:18;17.10;1.00
24460;DHT22;12630;50.860;5.714;2023-07-30T01:06:46;17.10;1.00
24460;DHT22;12630;50.860;5.714;2023-07-30T01:09:13;17.20;1.00
24460;DHT22;12630;50.860;5.714;2023-07-30T01:11:42;17.20;1.00
24460;DHT22;12630;50.860;5.714;2023-07-30T01:14:10;17.20;1.00
24460;DHT22;12630;50.860;5.714;2023-07-30T01:16:39;17.20;1.00
24460;DHT22;12630;50.860;5.714;2023-07-30T01:19:06;17.20;1.00
24460;DHT22;12630;50.860;5.714;2023-07-30T01:21:36;17.20;1.00
24460;DHT22;12630;50.860;5.714;2023-07-30T01:24:04;17.20;1.00
24460;DHT22;12630;50.860;5.714;2023-07-30T01:26:36;17.20;1.00
24460;DHT22;12630;50.860;5.714;2023-07-30T01:29:09;17.20;1.00
24460;DHT22;12630;50.860;5.714;2023-07-30T01:31:39;17.10;1.00
24460;DHT22;12630;50.860;5.714;2023-07-30T01:34:07;17.20;1.00
24460;DHT22;12630;50.860;5.714;2023-07-30T01:36:39;17.10;1.00
24460;DHT22;12630;50.860;5.714;2023-07-30T01:39:06;17.10;1.00
24460;DHT22;12630;50.860;5.714;2023-07-30T01:41:35;17.10;1.00
24460;DHT22;12630;50.860;5.714;2023-07-30T01:44:03;17.10;1.00
24460;DHT22;12630;50.860;5.714;2023-07-30T01:46:30;17.10;1.00
24460;DHT22;12630;50.860;5.714;2023-07-30T01:48:57;17.10;1.00
24460;DHT22;12630;50.860;5.714;2023-07-30T01:51:24;17.10;1.00
24460;DHT22;12630;50.860;5.714;2023-07-30T01:53:53;17.10;1.00
24460;DHT22;12630;50.860;5.714;2023-07-30T01:56:20;17.10;1.00
24460;DHT22;12630;50.860;5.714;2023-07-30T01:58:47;17.10;1.00
24460;DHT22;12630;50.860;5.714;2023-07-30T02:01:15;17.00;1.00
24460;DHT22;12630;50.860;5.714;2023-07-30T02:03:42;16.60;28.90
24460;DHT22;12630;50.860;5.714;2023-07-30T02:06:10;16.10;1.00
24460;DHT22;12630;50.860;5.714;2023-07-30T02:08:38;15.20;39.90
24460;DHT22;12630;50.860;5.714;2023-07-30T02:11:06;15.20;99.90
24460;DHT22;12630;50.860;5.714;2023-07-30T02:13:34;15.40;99.90
24460;DHT22;12630;50.860;5.714;2023-07-30T02:16:01;15.70;58.90
24460;DHT22;12630;50.860;5.714;2023-07-30T02:18:28;15.90;59.00
24460;DHT22;12630;50.860;5.714;2023-07-30T02:20:55;16.10;1.00
24460;DHT22;12630;50.860;5.714;2023-07-30T02:23:23;16.10;12.00
24460;DHT22;12630;50.860;5.714;2023-07-30T02:25:50;16.10;8.50
24460;DHT22;12630;50.860;5.714;2023-07-30T02:28:19;16.10;22.60
24460;DHT22;12630;50.860;5.714;2023-07-30T02:30:46;16.10;23.40
24460;DHT22;12630;50.860;5.714;2023-07-30T02:33:13;16.20;36.30
24460;DHT22;12630;50.860;5.714;2023-07-30T02:35:40;16.30;1.00
24460;DHT22;12630;50.860;5.714;2023-07-30T02:38:09;16.30;1.00
24460;DHT22;12630;50.860;5.714;2023-07-30T02:40:37;16.20;1.00
24460;DHT22;12630;50.860;5.714;2023-07-30T02:43:04;16.00;1.00
24460;DHT22;12630;50.860;5.714;2023-07-30T02:45:32;16.00;1.00
24460;DHT22;12630;50.860;5.714;2023-07-30T02:48:00;15.90;3.70
24460;DHT22;12630;50.860;5.714;2023-07-30T02:50:27;15.80;1.00
24460;DHT22;12630;50.860;5.714;2023-07-30T02:52:54;15.70;1.00
24460;DHT22;12630;50.860;5.714;2023-07-30T02:55:21;15.70;1.00
24460;DHT22;12630;50.860;5.714;2023-07-30T02:57:49;15.60;1.00
24460;DHT22;12630;50.860;5.714;2023-07-30T03:00:16;15.60;1.00
24460;DHT22;12630;50.860;5.714;2023-07-30T03:02:45;15.60;1.00
24460;DHT22;12630;50.860;5.714;2023-07-30T03:05:12;15.60;1.00
24460;DHT22;12630;50.860;5.714;2023-07-30T03:07:39;15.60;1.00
24460;DHT22;12630;50.860;5.714;2023-07-30T03:10:07;15.60;1.00
24460;DHT22;12630;50.860;5.714;2023-07-30T03:12:34;15.60;1.00
24460;DHT22;12630;50.860;5.714;2023-07-30T03:15:02;15.60;1.00
24460;DHT22;12630;50.860;5.714;2023-07-30T03:17:29;15.70;1.00
24460;DHT22;12630;50.860;5.714;2023-07-30T03:19:58;15.80;1.00
24460;DHT22;12630;50.860;5.714;2023-07-30T03:22:25;15.80;1.00
24460;DHT22;12630;50.860;5.714;2023-07-30T03:24:52;15.80;1.00
24460;DHT22;12630;50.860;5.714;2023-07-30T03:27:19;15.80;1.00
24460;DHT22;12630;50.860;5.714;2023-07-30T03:29:47;15.80;1.00
24460;DHT22;12630;50.860;5.714;2023-07-30T03:32:14;15.80;1.00
24460;DHT22;12630;50.860;5.714;2023-07-30T03:34:41;15.90;1.00
24460;DHT22;12630;50.860;5.714;2023-07-30T03:37:10;15.80;1.00
24460;DHT22;12630;50.860;5.714;2023-07-30T03:39:37;15.60;4.40
24460;DHT22;12630;50.860;5.714;2023-07-30T03:42:04;15.30;93.50
24460;DHT22;12630;50.860;5.714;2023-07-30T03:44:31;15.20;99.90
24460;DHT22;12630;50.860;5.714;2023-07-30T03:46:59;15.00;99.90
24460;DHT22;12630;50.860;5.714;2023-07-30T03:49:26;14.80;99.90
24460;DHT22;12630;50.860;5.714;2023-07-30T03:51:53;14.80;1.00
24460;DHT22;12630;50.860;5.714;2023-07-30T03:54:22;14.60;1.00
24460;DHT22;12630;50.860;5.714;2023-07-30T03:56:49;14.60;1.00
24460;DHT22;12630;50.860;5.714;2023-07-30T03:59:16;14.50;1.00
24460;DHT22;12630;50.860;5.714;2023-07-30T04:01:44;14.50;1.00
24460;DHT22;12630;50.860;5.714;2023-07-30T04:04:11;14.50;1.00
24460;DHT22;12630;50.860;5.714;2023-07-30T04:06:38;14.40;99.90
24460;DHT22;12630;50.860;5.714;2023-07-30T04:09:05;14.40;99.90
24460;DHT22;12630;50.860;5.714;2023-07-30T04:11:35;14.50;99.90
24460;DHT22;12630;50.860;5.714;2023-07-30T04:14:02;14.50;1.00
24460;DHT22;12630;50.860;5.714;2023-07-30T04:16:30;14.50;10.40
24460;DHT22;12630;50.860;5.714;2023-07-30T04:18:58;14.50;18.90
24460;DHT22;12630;50.860;5.714;2023-07-30T04:21:25;14.50;24.30
24460;DHT22;12630;50.860;5.714;2023-07-30T04:23:52;14.40;99.90
24460;DHT22;12630;50.860;5.714;2023-07-30T04:26:19;14.40;99.90
24460;DHT22;12630;50.860;5.714;2023-07-30T04:28:48;14.30;99.90
24460;DHT22;12630;50.860;5.714;2023-07-30T04:31:15;14.30;99.90
24460;DHT22;12630;50.860;5.714;2023-07-30T04:33:42;14.40;89.40
24460;DHT22;12630;50.860;5.714;2023-07-30T04:36:09;14.50;97.70
24460;DHT22;12630;50.860;5.714;2023-07-30T04:38:37;14.50;99.90
24460;DHT22;12630;50.860;5.714;2023-07-30T04:41:04;14.50;99.90
24460;DHT22;12630;50.860;5.714;2023-07-30T04:43:31;14.50;99.90
24460;DHT22;12630;50.860;5.714;2023-07-30T04:46:00;14.50;99.90
24460;DHT22;12630;50.860;5.714;2023-07-30T04:48:27;14.50;99.90
24460;DHT22;12630;50.860;5.714;2023-07-30T04:50:54;14.50;99.90
24460;DHT22;12630;50.860;5.714;2023-07-30T04:53:21;14.60;99.90
24460;DHT22;12630;50.860;5.714;2023-07-30T04:55:52;14.60;99.90
24460;DHT22;12630;50.860;5.714;2023-07-30T04:58:21;14.70;99.90
24460;DHT22;12630;50.860;5.714;2023-07-30T05:00:48;14.70;99.90
24460;DHT22;12630;50.860;5.714;2023-07-30T05:03:17;14.70;99.90
24460;DHT22;12630;50.860;5.714;2023-07-30T05:05:44;14.80;99.90
24460;DHT22;12630;50.860;5.714;2023-07-30T05:08:12;14.80;99.90
24460;DHT22;12630;50.860;5.714;2023-07-30T05:10:39;14.80;99.90
24460;DHT22;12630;50.860;5.714;2023-07-30T05:13:06;14.90;99.90
24460;DHT22;12630;50.860;5.714;2023-07-30T05:15:34;14.90;99.90
24460;DHT22;12630;50.860;5.714;2023-07-30T05:18:02;14.90;99.90
24460;DHT22;12630;50.860;5.714;2023-07-30T05:20:30;14.90;99.90
24460;DHT22;12630;50.860;5.714;2023-07-30T05:22:57;15.00;99.90
24460;DHT22;12630;50.860;5.714;2023-07-30T05:25:25;14.90;99.90
24460;DHT22;12630;50.860;5.714;2023-07-30T05:27:52;15.00;99.90
24460;DHT22;12630;50.860;5.714;2023-07-30T05:30:19;15.00;99.90
24460;DHT22;12630;50.860;5.714;2023-07-30T05:32:46;15.00;99.90
24460;DHT22;12630;50.860;5.714;2023-07-30T05:35:14;15.10;99.90
24460;DHT22;12630;50.860;5.714;2023-07-30T05:37:42;15.10;99.90
24460;DHT22;12630;50.860;5.714;2023-07-30T05:40:10;15.10;99.90
24460;DHT22;12630;50.860;5.714;2023-07-30T05:42:37;15.20;99.90
24460;DHT22;12630;50.860;5.714;2023-07-30T05:45:05;15.20;99.90
24460;DHT22;12630;50.860;5.714;2023-07-30T05:47:33;15.30;99.90
24460;DHT22;12630;50.860;5.714;2023-07-30T05:50:01;15.40;99.90
24460;DHT22;12630;50.860;5.714;2023-07-30T05:52:29;15.40;99.90
24460;DHT22;12630;50.860;5.714;2023-07-30T05:54:58;15.40;99.90
24460;DHT22;12630;50.860;5.714;2023-07-30T05:57:25;15.40;99.90
24460;DHT22;12630;50.860;5.714;2023-07-30T05:59:52;15.40;99.90
24460;DHT22;12630;50.860;5.714;2023-07-30T06:02:20;15.30;99.90
24460;DHT22;12630;50.860;5.714;2023-07-30T06:04:47;15.30;99.90
24460;DHT22;12630;50.860;5.714;2023-07-30T06:07:15;15.40;99.90
24460;DHT22;12630;50.860;5.714;2023-07-30T06:09:42;15.40;99.90
24460;DHT22;12630;50.860;5.714;2023-07-30T06:12:12;15.50;99.90
24460;DHT22;12630;50.860;5.714;2023-07-30T06:14:39;15.50;99.90
24460;DHT22;12630;50.860;5.714;2023-07-30T06:17:07;15.40;99.90
24460;DHT22;12630;50.860;5.714;2023-07-30T06:19:34;15.60;99.90
24460;DHT22;12630;50.860;5.714;2023-07-30T06:22:01;15.70;99.90
24460;DHT22;12630;50.860;5.714;2023-07-30T06:24:29;15.70;99.90
24460;DHT22;12630;50.860;5.714;2023-07-30T06:26:56;15.70;99.90
24460;DHT22;12630;50.860;5.714;2023-07-30T06:29:25;15.90;99.90
24460;DHT22;12630;50.860;5.714;2023-07-30T06:31:52;15.90;99.90
24460;DHT22;12630;50.860;5.714;2023-07-30T06:34:19;16.00;99.90
24460;DHT22;12630;50.860;5.714;2023-07-30T06:36:46;16.00;99.90
24460;DHT22;12630;50.860;5.714;2023-07-30T06:39:14;16.30;99.90
24460;DHT22;12630;50.860;5.714;2023-07-30T06:41:41;16.30;95.60
24460;DHT22;12630;50.860;5.714;2023-07-30T06:44:08;16.30;99.60
24460;DHT22;12630;50.860;5.714;2023-07-30T06:46:37;16.40;99.90
24460;DHT22;12630;50.860;5.714;2023-07-30T06:49:04;16.20;99.90
24460;DHT22;12630;50.860;5.714;2023-07-30T06:51:31;16.20;99.90
24460;DHT22;12630;50.860;5.714;2023-07-30T06:53:59;16.20;95.20
24460;DHT22;12630;50.860;5.714;2023-07-30T06:56:26;16.10;99.90
24460;DHT22;12630;50.860;5.714;2023-07-30T06:58:53;16.50;99.90
24460;DHT22;12630;50.860;5.714;2023-07-30T07:01:20;16.40;83.70
24460;DHT22;12630;50.860;5.714;2023-07-30T07:03:49;16.40;90.70
24460;DHT22;12630;50.860;5.714;2023-07-30T07:06:16;16.40;87.40
24460;DHT22;12630;50.860;5.714;2023-07-30T07:08:44;16.60;71.10
24460;DHT22;12630;50.860;5.714;2023-07-30T07:11:11;16.80;80.80
24460;DHT22;12630;50.860;5.714;2023-07-30T07:13:38;17.00;64.90
24460;DHT22;12630;50.860;5.714;2023-07-30T07:16:06;17.00;57.30
24460;DHT22;12630;50.860;5.714;2023-07-30T07:18:33;17.20;37.50
24460;DHT22;12630;50.860;5.714;2023-07-30T07:21:01;17.10;32.40
24460;DHT22;12630;50.860;5.714;2023-07-30T07:23:29;17.10;30.60
24460;DHT22;12630;50.860;5.714;2023-07-30T07:25:56;16.90;35.70
24460;DHT22;12630;50.860;5.714;2023-07-30T07:28:23;17.10;34.90
24460;DHT22;12630;50.860;5.714;2023-07-30T07:30:51;17.10;30.80
24460;DHT22;12630;50.860;5.714;2023-07-30T07:33:18;16.90;37.20
24460;DHT22;12630;50.860;5.714;2023-07-30T07:35:45;16.80;46.00
24460;DHT22;12630;50.860;5.714;2023-07-30T07:38:14;16.80;47.50
24460;DHT22;12630;50.860;5.714;2023-07-30T07:40:41;17.00;35.60
24460;DHT22;12630;50.860;5.714;2023-07-30T07:43:09;16.90;35.80
24460;DHT22;12630;50.860;5.714;2023-07-30T07:45:36;16.80;31.60
24460;DHT22;12630;50.860;5.714;2023-07-30T07:48:03;17.70;24.80
24460;DHT22;12630;50.860;5.714;2023-07-30T07:50:30;18.40;11.00
24460;DHT22;12630;50.860;5.714;2023-07-30T07:52:58;18.90;1.40
24460;DHT22;12630;50.860;5.714;2023-07-30T07:55:26;19.40;1.00
24460;DHT22;12630;50.860;5.714;2023-07-30T07:57:54;18.70;1.00
24460;DHT22;12630;50.860;5.714;2023-07-30T08:00:21;18.70;1.00
24460;DHT22;12630;50.860;5.714;2023-07-30T08:02:48;20.00;1.00
24460;DHT22;12630;50.860;5.714;2023-07-30T08:05:16;19.50;1.00
24460;DHT22;12630;50.860;5.714;2023-07-30T08:07:45;19.30;1.00
24460;DHT22;12630;50.860;5.714;2023-07-30T08:10:13;21.60;1.00
24460;DHT22;12630;50.860;5.714;2023-07-30T08:12:41;21.20;1.00
24460;DHT22;12630;50.860;5.714;2023-07-30T08:15:09;20.10;1.00
24460;DHT22;12630;50.860;5.714;2023-07-30T08:17:36;19.20;1.00
24460;DHT22;12630;50.860;5.714;2023-07-30T08:20:04;19.00;1.00
24460;DHT22;12630;50.860;5.714;2023-07-30T08:22:32;19.80;1.00
24460;DHT22;12630;50.860;5.714;2023-07-30T08:24:59;18.50;1.00
24460;DHT22;12630;50.860;5.714;2023-07-30T08:27:26;19.10;1.00
24460;DHT22;12630;50.860;5.714;2023-07-30T08:29:55;19.50;1.00
24460;DHT22;12630;50.860;5.714;2023-07-30T08:32:22;19.20;1.00
24460;DHT22;12630;50.860;5.714;2023-07-30T08:34:49;19.00;1.00
24460;DHT22;12630;50.860;5.714;2023-07-30T08:37:16;20.90;1.00
24460;DHT22;12630;50.860;5.714;2023-07-30T08:39:44;19.70;1.00
24460;DHT22;12630;50.860;5.714;2023-07-30T08:42:11;18.80;1.00
24460;DHT22;12630;50.860;5.714;2023-07-30T08:44:38;19.50;1.00
24460;DHT22;12630;50.860;5.714;2023-07-30T08:47:07;18.60;1.00
24460;DHT22;12630;50.860;5.714;2023-07-30T08:49:34;18.50;1.00
24460;DHT22;12630;50.860;5.714;2023-07-30T08:52:03;20.40;1.00
24460;DHT22;12630;50.860;5.714;2023-07-30T08:54:31;21.50;1.00
24460;DHT22;12630;50.860;5.714;2023-07-30T08:56:58;21.40;1.00
24460;DHT22;12630;50.860;5.714;2023-07-30T08:59:27;22.20;1.00
24460;DHT22;12630;50.860;5.714;2023-07-30T09:01:58;21.00;1.00
24460;DHT22;12630;50.860;5.714;2023-07-30T09:04:29;21.40;1.00
24460;DHT22;12630;50.860;5.714;2023-07-30T09:06:56;20.60;1.00
24460;DHT22;12630;50.860;5.714;2023-07-30T09:09:24;21.70;1.00
24460;DHT22;12630;50.860;5.714;2023-07-30T09:11:51;20.30;1.00
24460;DHT22;12630;50.860;5.714;2023-07-30T09:14:20;20.80;1.00
24460;DHT22;12630;50.860;5.714;2023-07-30T09:16:47;20.60;1.00
24460;DHT22;12630;50.860;5.714;2023-07-30T09:19:16;20.00;1.00
24460;DHT22;12630;50.860;5.714;2023-07-30T09:21:46;19.50;1.00
24460;DHT22;12630;50.860;5.714;2023-07-30T09:24:21;21.70;1.00
24460;DHT22;12630;50.860;5.714;2023-07-30T09:26:49;21.70;1.00
24460;DHT22;12630;50.860;5.714;2023-07-30T09:29:16;21.60;1.00
24460;DHT22;12630;50.860;5.714;2023-07-30T09:31:46;21.00;1.00
24460;DHT22;12630;50.860;5.714;2023-07-30T09:34:16;21.80;1.00
24460;DHT22;12630;50.860;5.714;2023-07-30T09:36:46;22.40;1.00
24460;DHT22;12630;50.860;5.714;2023-07-30T09:39:18;21.30;1.00
24460;DHT22;12630;50.860;5.714;2023-07-30T09:41:46;20.20;1.00
24460;DHT22;12630;50.860;5.714;2023-07-30T09:44:15;20.30;1.00
24460;DHT22;12630;50.860;5.714;2023-07-30T09:46:43;20.00;1.00
24460;DHT22;12630;50.860;5.714;2023-07-30T09:49:11;19.60;1.00
24460;DHT22;12630;50.860;5.714;2023-07-30T09:51:39;20.50;1.00
24460;DHT22;12630;50.860;5.714;2023-07-30T09:54:09;21.00;1.00
24460;DHT22;12630;50.860;5.714;2023-07-30T09:56:38;20.30;1.00
24460;DHT22;12630;50.860;5.714;2023-07-30T09:59:06;20.10;1.00
24460;DHT22;12630;50.860;5.714;2023-07-30T10:01:38;19.90;1.00
24460;DHT22;12630;50.860;5.714;2023-07-30T10:04:08;20.10;1.00
24460;DHT22;12630;50.860;5.714;2023-07-30T10:06:39;19.90;1.00
24460;DHT22;12630;50.860;5.714;2023-07-30T10:09:10;19.40;1.00
24460;DHT22;12630;50.860;5.714;2023-07-30T10:11:40;19.70;1.00
24460;DHT22;12630;50.860;5.714;2023-07-30T10:14:09;19.60;1.00
24460;DHT22;12630;50.860;5.714;2023-07-30T10:16:37;19.50;1.00
24460;DHT22;12630;50.860;5.714;2023-07-30T10:19:04;19.30;1.00
24460;DHT22;12630;50.860;5.714;2023-07-30T10:21:33;19.40;1.00
24460;DHT22;12630;50.860;5.714;2023-07-30T10:24:02;20.20;1.00
24460;DHT22;12630;50.860;5.714;2023-07-30T10:26:32;20.80;1.00
24460;DHT22;12630;50.860;5.714;2023-07-30T10:29:16;21.10;1.00
24460;DHT22;12630;50.860;5.714;2023-07-30T10:31:52;20.90;1.00
24460;DHT22;12630;50.860;5.714;2023-07-30T10:34:20;20.40;1.00
24460;DHT22;12630;50.860;5.714;2023-07-30T10:36:49;20.40;1.00
24460;DHT22;12630;50.860;5.714;2023-07-30T10:39:18;19.70;1.00
